CPQ weather

Amarais Airport
Campinas, São Paulo, Brazil

Public forecast

Using degrees Celsius for public forecast. Weather courtesy of forecast.io.

METAR (pilot weather report)

Closest report is Viracopos International Airport, 9.0 nm (16.7 km) S. Retrieved 2019/08/23 06:00 UTC (53 minutes ago):

SBKP 230600Z 11010KT CAVOK 14/11 Q1020

TAF (pilot weather forecast)

Closest forecast is Viracopos International Airport, 9.0 nm (16.7 km) S. Retrieved 2019/08/23 06:00 UTC (53 minutes ago):

TAF SBKP 230220Z 2306/2406 13015KT CAVOK TN13/2309Z TX24/2317Z BECMG 2306/2308 SCT030 PROB30 2310/2313 6000 RA SCT020 BKN040 BECMG 2313/2315 13015KT BECMG 2319/2321 CAVOK RMK PGG